sensor_id;sensor_type;location;lat;lon;timestamp;pressure;altitude;pressure_sealevel;temperature;humidity
60319;BME280;46163;52.306;5.634;2024-01-06T00:01:03;100257.97;;;4.05;100.00
60319;BME280;46163;52.306;5.634;2024-01-06T00:03:28;100252.09;;;3.95;100.00
60319;BME280;46163;52.306;5.634;2024-01-06T00:05:54;100263.78;;;3.92;100.00
60319;BME280;46163;52.306;5.634;2024-01-06T00:08:20;100275.59;;;3.96;100.00
60319;BME280;46163;52.306;5.634;2024-01-06T00:10:46;100280.22;;;3.94;100.00
60319;BME280;46163;52.306;5.634;2024-01-06T00:13:11;100273.19;;;3.87;100.00
60319;BME280;46163;52.306;5.634;2024-01-06T00:15:37;100275.81;;;3.87;100.00
60319;BME280;46163;52.306;5.634;2024-01-06T00:18:03;100278.31;;;3.80;100.00
60319;BME280;46163;52.306;5.634;2024-01-06T00:20:28;100272.22;;;3.80;100.00
60319;BME280;46163;52.306;5.634;2024-01-06T00:22:54;100279.13;;;3.81;100.00
60319;BME280;46163;52.306;5.634;2024-01-06T00:25:21;100293.91;;;3.82;100.00
60319;BME280;46163;52.306;5.634;2024-01-06T00:27:47;100294.28;;;3.79;100.00
60319;BME280;46163;52.306;5.634;2024-01-06T00:30:12;100297.53;;;3.81;100.00
60319;BME280;46163;52.306;5.634;2024-01-06T00:32:38;100303.00;;;3.79;100.00
60319;BME280;46163;52.306;5.634;2024-01-06T00:35:04;100300.69;;;3.76;100.00
60319;BME280;46163;52.306;5.634;2024-01-06T00:37:29;100312.22;;;3.75;100.00
60319;BME280;46163;52.306;5.634;2024-01-06T00:39:55;100311.91;;;3.70;100.00
60319;BME280;46163;52.306;5.634;2024-01-06T00:42:20;100303.84;;;3.63;100.00
60319;BME280;46163;52.306;5.634;2024-01-06T00:44:45;100295.13;;;3.63;100.00
60319;BME280;46163;52.306;5.634;2024-01-06T00:47:11;100310.25;;;3.69;100.00
60319;BME280;46163;52.306;5.634;2024-01-06T00:49:37;100309.47;;;3.60;100.00
60319;BME280;46163;52.306;5.634;2024-01-06T00:52:02;100317.00;;;3.72;100.00
60319;BME280;46163;52.306;5.634;2024-01-06T00:54:28;100311.59;;;3.65;100.00
60319;BME280;46163;52.306;5.634;2024-01-06T00:56:54;100324.25;;;3.69;100.00
60319;BME280;46163;52.306;5.634;2024-01-06T00:59:19;100307.84;;;3.51;100.00
60319;BME280;46163;52.306;5.634;2024-01-06T01:01:45;100321.97;;;3.50;100.00
60319;BME280;46163;52.306;5.634;2024-01-06T01:04:10;100307.00;;;3.51;100.00
60319;BME280;46163;52.306;5.634;2024-01-06T01:06:37;100324.88;;;3.80;100.00
60319;BME280;46163;52.306;5.634;2024-01-06T01:09:02;100310.13;;;3.46;100.00
60319;BME280;46163;52.306;5.634;2024-01-06T01:11:28;100322.16;;;3.40;100.00
60319;BME280;46163;52.306;5.634;2024-01-06T01:13:53;100331.69;;;3.42;100.00
60319;BME280;46163;52.306;5.634;2024-01-06T01:16:19;100318.38;;;3.35;100.00
60319;BME280;46163;52.306;5.634;2024-01-06T01:18:44;100330.69;;;3.43;100.00
60319;BME280;46163;52.306;5.634;2024-01-06T01:21:09;100327.72;;;3.46;100.00
60319;BME280;46163;52.306;5.634;2024-01-06T01:23:35;100319.72;;;3.31;100.00
60319;BME280;46163;52.306;5.634;2024-01-06T01:26:00;100332.19;;;3.37;100.00
60319;BME280;46163;52.306;5.634;2024-01-06T01:28:26;100338.59;;;3.34;100.00
60319;BME280;46163;52.306;5.634;2024-01-06T01:30:51;100343.22;;;3.40;100.00
60319;BME280;46163;52.306;5.634;2024-01-06T01:33:16;100349.94;;;3.35;100.00
60319;BME280;46163;52.306;5.634;2024-01-06T01:35:42;100359.16;;;3.31;100.00
60319;BME280;46163;52.306;5.634;2024-01-06T01:38:07;100360.97;;;3.30;100.00
60319;BME280;46163;52.306;5.634;2024-01-06T01:40:33;100347.81;;;3.30;100.00
60319;BME280;46163;52.306;5.634;2024-01-06T01:42:58;100365.56;;;3.28;100.00
60319;BME280;46163;52.306;5.634;2024-01-06T01:45:24;100370.81;;;3.28;100.00
60319;BME280;46163;52.306;5.634;2024-01-06T01:47:49;100377.06;;;3.27;100.00
60319;BME280;46163;52.306;5.634;2024-01-06T01:50:15;100385.13;;;3.26;100.00
60319;BME280;46163;52.306;5.634;2024-01-06T01:52:41;100382.31;;;3.27;100.00
60319;BME280;46163;52.306;5.634;2024-01-06T01:55:08;100381.50;;;3.35;100.00
60319;BME280;46163;52.306;5.634;2024-01-06T01:57:33;100376.91;;;3.21;100.00
60319;BME280;46163;52.306;5.634;2024-01-06T02:00:00;100370.50;;;3.15;100.00
60319;BME280;46163;52.306;5.634;2024-01-06T02:02:26;100386.94;;;3.33;100.00
60319;BME280;46163;52.306;5.634;2024-01-06T02:04:52;100391.03;;;3.28;100.00
60319;BME280;46163;52.306;5.634;2024-01-06T02:07:17;100378.69;;;3.20;100.00
60319;BME280;46163;52.306;5.634;2024-01-06T02:09:43;100396.81;;;3.39;100.00
60319;BME280;46163;52.306;5.634;2024-01-06T02:12:08;100373.59;;;3.19;100.00
60319;BME280;46163;52.306;5.634;2024-01-06T02:14:33;100399.75;;;3.28;100.00
60319;BME280;46163;52.306;5.634;2024-01-06T02:16:59;100400.56;;;3.21;100.00
60319;BME280;46163;52.306;5.634;2024-01-06T02:19:24;100400.09;;;3.25;100.00
60319;BME280;46163;52.306;5.634;2024-01-06T02:21:52;100411.41;;;3.26;100.00
60319;BME280;46163;52.306;5.634;2024-01-06T02:24:18;100407.78;;;3.10;100.00
60319;BME280;46163;52.306;5.634;2024-01-06T02:26:43;100416.69;;;3.18;100.00
60319;BME280;46163;52.306;5.634;2024-01-06T02:29:08;100424.56;;;3.18;100.00
60319;BME280;46163;52.306;5.634;2024-01-06T02:31:34;100418.97;;;3.12;100.00
60319;BME280;46163;52.306;5.634;2024-01-06T02:33:59;100424.91;;;3.15;100.00
60319;BME280;46163;52.306;5.634;2024-01-06T02:36:24;100424.72;;;3.16;100.00
60319;BME280;46163;52.306;5.634;2024-01-06T02:38:50;100445.44;;;3.19;100.00
60319;BME280;46163;52.306;5.634;2024-01-06T02:41:15;100449.22;;;3.17;100.00
60319;BME280;46163;52.306;5.634;2024-01-06T02:43:40;100439.50;;;3.09;100.00
60319;BME280;46163;52.306;5.634;2024-01-06T02:46:07;100444.56;;;3.02;100.00
60319;BME280;46163;52.306;5.634;2024-01-06T02:48:32;100450.00;;;3.01;100.00
60319;BME280;46163;52.306;5.634;2024-01-06T02:50:57;100456.41;;;2.98;100.00
60319;BME280;46163;52.306;5.634;2024-01-06T02:53:23;100461.31;;;2.93;100.00
60319;BME280;46163;52.306;5.634;2024-01-06T02:55:48;100457.53;;;2.88;100.00
60319;BME280;46163;52.306;5.634;2024-01-06T02:58:14;100469.00;;;2.87;100.00
60319;BME280;46163;52.306;5.634;2024-01-06T03:00:39;100480.22;;;2.89;100.00
60319;BME280;46163;52.306;5.634;2024-01-06T03:03:04;100464.59;;;2.87;100.00
60319;BME280;46163;52.306;5.634;2024-01-06T03:05:30;100472.00;;;2.92;100.00
60319;BME280;46163;52.306;5.634;2024-01-06T03:07:56;100471.38;;;2.98;100.00
60319;BME280;46163;52.306;5.634;2024-01-06T03:10:22;100471.34;;;2.90;100.00
60319;BME280;46163;52.306;5.634;2024-01-06T03:12:47;100479.72;;;2.93;100.00
60319;BME280;46163;52.306;5.634;2024-01-06T03:15:13;100484.81;;;2.95;100.00
60319;BME280;46163;52.306;5.634;2024-01-06T03:17:38;100474.59;;;2.83;100.00
60319;BME280;46163;52.306;5.634;2024-01-06T03:20:04;100497.31;;;3.01;100.00
60319;BME280;46163;52.306;5.634;2024-01-06T03:22:30;100491.72;;;3.04;100.00
60319;BME280;46163;52.306;5.634;2024-01-06T03:24:55;100504.19;;;2.94;100.00
60319;BME280;46163;52.306;5.634;2024-01-06T03:27:21;100509.78;;;2.91;100.00
60319;BME280;46163;52.306;5.634;2024-01-06T03:29:46;100510.56;;;2.83;100.00
60319;BME280;46163;52.306;5.634;2024-01-06T03:32:11;100503.13;;;2.70;100.00
60319;BME280;46163;52.306;5.634;2024-01-06T03:34:37;100517.78;;;2.81;100.00
60319;BME280;46163;52.306;5.634;2024-01-06T03:37:02;100522.75;;;2.92;100.00
60319;BME280;46163;52.306;5.634;2024-01-06T03:39:28;100526.38;;;2.91;100.00
60319;BME280;46163;52.306;5.634;2024-01-06T03:41:53;100502.78;;;2.65;100.00
60319;BME280;46163;52.306;5.634;2024-01-06T03:44:19;100522.00;;;2.66;100.00
60319;BME280;46163;52.306;5.634;2024-01-06T03:46:44;100538.97;;;2.79;100.00
60319;BME280;46163;52.306;5.634;2024-01-06T03:49:10;100544.69;;;2.75;100.00
60319;BME280;46163;52.306;5.634;2024-01-06T03:51:35;100550.78;;;2.75;100.00
60319;BME280;46163;52.306;5.634;2024-01-06T03:54:00;100563.41;;;2.72;100.00
60319;BME280;46163;52.306;5.634;2024-01-06T03:56:26;100551.91;;;2.73;100.00
60319;BME280;46163;52.306;5.634;2024-01-06T03:58:51;100557.63;;;2.68;100.00
60319;BME280;46163;52.306;5.634;2024-01-06T04:01:17;100566.31;;;2.61;100.00
60319;BME280;46163;52.306;5.634;2024-01-06T04:03:42;100567.13;;;2.61;100.00
60319;BME280;46163;52.306;5.634;2024-01-06T04:06:08;100557.75;;;2.59;100.00
60319;BME280;46163;52.306;5.634;2024-01-06T04:08:35;100568.78;;;2.62;100.00
60319;BME280;46163;52.306;5.634;2024-01-06T04:11:01;100573.00;;;2.55;100.00
60319;BME280;46163;52.306;5.634;2024-01-06T04:13:26;100581.22;;;2.52;100.00
60319;BME280;46163;52.306;5.634;2024-01-06T04:15:52;100580.72;;;2.82;100.00
60319;BME280;46163;52.306;5.634;2024-01-06T04:18:17;100573.41;;;2.68;100.00
60319;BME280;46163;52.306;5.634;2024-01-06T04:20:43;100587.19;;;2.62;100.00
60319;BME280;46163;52.306;5.634;2024-01-06T04:23:08;100581.91;;;2.36;100.00
60319;BME280;46163;52.306;5.634;2024-01-06T04:25:34;100588.75;;;2.29;100.00
60319;BME280;46163;52.306;5.634;2024-01-06T04:27:59;100567.38;;;2.24;100.00
60319;BME280;46163;52.306;5.634;2024-01-06T04:30:24;100580.94;;;2.37;100.00
60319;BME280;46163;52.306;5.634;2024-01-06T04:32:51;100584.00;;;2.33;100.00
60319;BME280;46163;52.306;5.634;2024-01-06T04:35:17;100596.25;;;2.24;100.00
60319;BME280;46163;52.306;5.634;2024-01-06T04:37:42;100589.50;;;2.21;100.00
60319;BME280;46163;52.306;5.634;2024-01-06T04:40:08;100588.00;;;2.37;100.00
60319;BME280;46163;52.306;5.634;2024-01-06T04:42:33;100588.69;;;2.21;100.00
60319;BME280;46163;52.306;5.634;2024-01-06T04:44:59;100564.41;;;2.01;100.00
60319;BME280;46163;52.306;5.634;2024-01-06T04:47:24;100590.81;;;2.17;100.00
60319;BME280;46163;52.306;5.634;2024-01-06T04:49:50;100595.28;;;2.07;100.00
60319;BME280;46163;52.306;5.634;2024-01-06T04:52:15;100591.19;;;2.05;100.00
60319;BME280;46163;52.306;5.634;2024-01-06T04:54:41;100588.03;;;2.01;100.00
60319;BME280;46163;52.306;5.634;2024-01-06T04:57:06;100586.16;;;1.93;100.00
60319;BME280;46163;52.306;5.634;2024-01-06T04:59:32;100603.41;;;1.96;100.00
60319;BME280;46163;52.306;5.634;2024-01-06T05:01:58;100600.25;;;2.10;100.00
60319;BME280;46163;52.306;5.634;2024-01-06T05:04:24;100601.16;;;2.01;100.00
60319;BME280;46163;52.306;5.634;2024-01-06T05:06:51;100612.91;;;2.15;100.00
60319;BME280;46163;52.306;5.634;2024-01-06T05:09:16;100620.94;;;2.13;100.00
60319;BME280;46163;52.306;5.634;2024-01-06T05:11:43;100622.44;;;1.98;100.00
60319;BME280;46163;52.306;5.634;2024-01-06T05:14:09;100613.91;;;2.14;100.00
60319;BME280;46163;52.306;5.634;2024-01-06T05:16:34;100620.44;;;1.92;100.00
60319;BME280;46163;52.306;5.634;2024-01-06T05:19:00;100626.03;;;1.79;100.00
60319;BME280;46163;52.306;5.634;2024-01-06T05:21:25;100628.44;;;2.08;100.00
60319;BME280;46163;52.306;5.634;2024-01-06T05:23:51;100636.22;;;1.82;100.00
60319;BME280;46163;52.306;5.634;2024-01-06T05:26:16;100644.97;;;1.83;100.00
60319;BME280;46163;52.306;5.634;2024-01-06T05:28:43;100647.28;;;1.86;100.00
60319;BME280;46163;52.306;5.634;2024-01-06T05:31:08;100638.31;;;1.61;100.00
60319;BME280;46163;52.306;5.634;2024-01-06T05:33:34;100643.28;;;1.36;100.00
60319;BME280;46163;52.306;5.634;2024-01-06T05:35:59;100657.75;;;1.40;100.00
60319;BME280;46163;52.306;5.634;2024-01-06T05:38:24;100631.84;;;1.00;100.00
60319;BME280;46163;52.306;5.634;2024-01-06T05:40:50;100661.00;;;0.88;100.00
60319;BME280;46163;52.306;5.634;2024-01-06T05:43:15;100658.69;;;-0.32;100.00
60319;BME280;46163;52.306;5.634;2024-01-06T05:45:41;100655.44;;;-0.64;100.00
60319;BME280;46163;52.306;5.634;2024-01-06T05:48:09;100669.22;;;0.46;100.00
60319;BME280;46163;52.306;5.634;2024-01-06T05:50:35;100670.25;;;1.19;100.00
60319;BME280;46163;52.306;5.634;2024-01-06T05:53:00;100676.00;;;1.60;100.00
60319;BME280;46163;52.306;5.634;2024-01-06T05:55:26;100683.97;;;1.68;100.00
60319;BME280;46163;52.306;5.634;2024-01-06T05:57:51;100662.59;;;1.63;100.00
60319;BME280;46163;52.306;5.634;2024-01-06T06:00:17;100678.97;;;1.75;100.00
60319;BME280;46163;52.306;5.634;2024-01-06T06:02:42;100672.34;;;1.70;100.00
60319;BME280;46163;52.306;5.634;2024-01-06T06:05:08;100674.97;;;1.70;100.00
60319;BME280;46163;52.306;5.634;2024-01-06T06:07:33;100687.94;;;1.72;100.00
60319;BME280;46163;52.306;5.634;2024-01-06T06:10:13;100689.75;;;1.44;100.00
60319;BME280;46163;52.306;5.634;2024-01-06T06:12:41;100696.59;;;0.71;100.00
60319;BME280;46163;52.306;5.634;2024-01-06T06:15:07;100713.53;;;0.09;93.38
60319;BME280;46163;52.306;5.634;2024-01-06T06:17:33;100700.03;;;-1.70;96.06
60319;BME280;46163;52.306;5.634;2024-01-06T06:19:59;100715.69;;;-0.25;100.00
60319;BME280;46163;52.306;5.634;2024-01-06T06:22:25;100698.47;;;0.98;100.00
60319;BME280;46163;52.306;5.634;2024-01-06T06:24:55;100699.00;;;1.38;100.00
60319;BME280;46163;52.306;5.634;2024-01-06T06:27:20;100711.63;;;1.62;100.00
60319;BME280;46163;52.306;5.634;2024-01-06T06:29:45;100697.53;;;1.63;100.00
60319;BME280;46163;52.306;5.634;2024-01-06T06:32:12;100714.09;;;1.64;100.00
60319;BME280;46163;52.306;5.634;2024-01-06T06:34:37;100720.75;;;1.58;100.00
60319;BME280;46163;52.306;5.634;2024-01-06T06:37:03;100739.22;;;1.66;100.00
60319;BME280;46163;52.306;5.634;2024-01-06T06:39:28;100745.63;;;1.54;100.00
60319;BME280;46163;52.306;5.634;2024-01-06T06:41:56;100742.91;;;1.36;100.00
60319;BME280;46163;52.306;5.634;2024-01-06T06:44:21;100739.00;;;1.03;100.00
60319;BME280;46163;52.306;5.634;2024-01-06T06:46:47;100742.38;;;0.38;100.00
60319;BME280;46163;52.306;5.634;2024-01-06T06:49:12;100750.31;;;-0.43;89.57
60319;BME280;46163;52.306;5.634;2024-01-06T06:51:38;100763.50;;;-2.69;98.92
60319;BME280;46163;52.306;5.634;2024-01-06T06:54:11;100754.44;;;-0.71;100.00
60319;BME280;46163;52.306;5.634;2024-01-06T06:56:37;100765.09;;;0.76;100.00
60319;BME280;46163;52.306;5.634;2024-01-06T06:59:02;100763.16;;;0.97;100.00
60319;BME280;46163;52.306;5.634;2024-01-06T07:01:28;100771.41;;;1.22;100.00
60319;BME280;46163;52.306;5.634;2024-01-06T07:03:53;100773.16;;;1.40;100.00
60319;BME280;46163;52.306;5.634;2024-01-06T07:06:19;100772.22;;;1.32;100.00
60319;BME280;46163;52.306;5.634;2024-01-06T07:08:44;100780.94;;;1.60;100.00
60319;BME280;46163;52.306;5.634;2024-01-06T07:11:10;100771.63;;;1.38;100.00
60319;BME280;46163;52.306;5.634;2024-01-06T07:13:40;100790.91;;;1.47;100.00
60319;BME280;46163;52.306;5.634;2024-01-06T07:16:06;100782.84;;;1.30;100.00
60319;BME280;46163;52.306;5.634;2024-01-06T07:18:32;100779.03;;;0.86;100.00
60319;BME280;46163;52.306;5.634;2024-01-06T07:20:58;100802.75;;;0.75;100.00
60319;BME280;46163;52.306;5.634;2024-01-06T07:23:23;100797.03;;;0.21;100.00
60319;BME280;46163;52.306;5.634;2024-01-06T07:25:48;100805.44;;;-1.18;87.58
60319;BME280;46163;52.306;5.634;2024-01-06T07:28:14;100807.81;;;-1.47;100.00
60319;BME280;46163;52.306;5.634;2024-01-06T07:30:39;100826.03;;;-0.01;100.00
60319;BME280;46163;52.306;5.634;2024-01-06T07:33:05;100818.88;;;1.09;100.00
60319;BME280;46163;52.306;5.634;2024-01-06T07:35:30;100822.75;;;1.05;100.00
60319;BME280;46163;52.306;5.634;2024-01-06T07:37:56;100820.06;;;1.44;100.00
60319;BME280;46163;52.306;5.634;2024-01-06T07:40:21;100808.84;;;1.51;100.00
60319;BME280;46163;52.306;5.634;2024-01-06T07:42:48;100825.94;;;1.55;100.00
60319;BME280;46163;52.306;5.634;2024-01-06T07:45:14;100821.28;;;1.49;100.00
60319;BME280;46163;52.306;5.634;2024-01-06T07:47:39;100840.28;;;1.70;100.00
60319;BME280;46163;52.306;5.634;2024-01-06T07:50:05;100837.16;;;1.57;100.00
60319;BME280;46163;52.306;5.634;2024-01-06T07:52:31;100832.91;;;1.27;100.00
60319;BME280;46163;52.306;5.634;2024-01-06T07:54:58;100838.16;;;1.37;100.00
60319;BME280;46163;52.306;5.634;2024-01-06T07:57:23;100854.03;;;1.35;100.00
60319;BME280;46163;52.306;5.634;2024-01-06T07:59:49;100849.06;;;0.65;96.85
60319;BME280;46163;52.306;5.634;2024-01-06T08:02:16;100864.28;;;-0.40;96.62
60319;BME280;46163;52.306;5.634;2024-01-06T08:04:42;100879.88;;;-1.89;98.27
60319;BME280;46163;52.306;5.634;2024-01-06T08:07:08;100878.31;;;-0.11;100.00
60319;BME280;46163;52.306;5.634;2024-01-06T08:09:33;100860.25;;;0.86;100.00
60319;BME280;46163;52.306;5.634;2024-01-06T08:11:59;100869.59;;;1.37;100.00
60319;BME280;46163;52.306;5.634;2024-01-06T08:14:24;100868.63;;;1.38;100.00
60319;BME280;46163;52.306;5.634;2024-01-06T08:16:50;100875.50;;;1.68;100.00
60319;BME280;46163;52.306;5.634;2024-01-06T08:19:15;100889.72;;;1.75;100.00
60319;BME280;46163;52.306;5.634;2024-01-06T08:21:41;100885.44;;;1.64;100.00
60319;BME280;46163;52.306;5.634;2024-01-06T08:24:07;100892.44;;;1.74;100.00
60319;BME280;46163;52.306;5.634;2024-01-06T08:26:32;100879.50;;;1.62;100.00
60319;BME280;46163;52.306;5.634;2024-01-06T08:28:58;100893.59;;;1.61;100.00
60319;BME280;46163;52.306;5.634;2024-01-06T08:31:23;100886.03;;;1.49;100.00
60319;BME280;46163;52.306;5.634;2024-01-06T08:33:48;100902.31;;;1.42;100.00
60319;BME280;46163;52.306;5.634;2024-01-06T08:36:14;100902.44;;;0.83;100.00
60319;BME280;46163;52.306;5.634;2024-01-06T08:38:40;100901.03;;;0.60;100.00
60319;BME280;46163;52.306;5.634;2024-01-06T08:41:05;100892.97;;;-0.29;96.19
60319;BME280;46163;52.306;5.634;2024-01-06T08:43:31;100920.34;;;-2.41;95.51
60319;BME280;46163;52.306;5.634;2024-01-06T08:45:56;100935.19;;;-0.13;100.00
60319;BME280;46163;52.306;5.634;2024-01-06T08:48:22;100922.34;;;1.05;100.00
60319;BME280;46163;52.306;5.634;2024-01-06T08:50:48;100935.31;;;1.45;100.00
60319;BME280;46163;52.306;5.634;2024-01-06T08:53:13;100939.28;;;1.68;100.00
60319;BME280;46163;52.306;5.634;2024-01-06T08:55:39;100938.03;;;1.73;100.00
60319;BME280;46163;52.306;5.634;2024-01-06T08:58:04;100927.66;;;1.81;100.00
60319;BME280;46163;52.306;5.634;2024-01-06T09:00:30;100940.94;;;1.79;100.00
60319;BME280;46163;52.306;5.634;2024-01-06T09:02:56;100948.50;;;1.82;100.00
60319;BME280;46163;52.306;5.634;2024-01-06T09:05:21;100952.06;;;1.91;100.00
60319;BME280;46163;52.306;5.634;2024-01-06T09:07:47;100947.69;;;1.91;100.00
60319;BME280;46163;52.306;5.634;2024-01-06T09:10:16;100951.03;;;1.55;100.00
60319;BME280;46163;52.306;5.634;2024-01-06T09:12:42;100958.19;;;1.82;100.00
60319;BME280;46163;52.306;5.634;2024-01-06T09:15:08;100967.59;;;1.65;98.65
60319;BME280;46163;52.306;5.634;2024-01-06T09:17:34;100969.09;;;1.00;98.58
60319;BME280;46163;52.306;5.634;2024-01-06T09:20:00;100979.94;;;0.15;88.74
60319;BME280;46163;52.306;5.634;2024-01-06T09:22:27;100983.84;;;-1.40;83.38
60319;BME280;46163;52.306;5.634;2024-01-06T09:24:52;100995.28;;;-1.30;100.00
60319;BME280;46163;52.306;5.634;2024-01-06T09:27:19;100988.25;;;0.20;100.00
60319;BME280;46163;52.306;5.634;2024-01-06T09:29:45;100988.28;;;1.20;100.00
60319;BME280;46163;52.306;5.634;2024-01-06T09:32:10;100975.47;;;1.46;100.00
60319;BME280;46163;52.306;5.634;2024-01-06T09:34:35;100970.66;;;1.60;100.00
60319;BME280;46163;52.306;5.634;2024-01-06T09:37:01;100998.38;;;1.73;100.00
60319;BME280;46163;52.306;5.634;2024-01-06T09:39:26;100994.94;;;1.62;100.00
60319;BME280;46163;52.306;5.634;2024-01-06T09:41:52;101000.75;;;1.66;100.00
60319;BME280;46163;52.306;5.634;2024-01-06T09:44:18;101000.19;;;1.62;100.00
60319;BME280;46163;52.306;5.634;2024-01-06T09:46:44;101004.06;;;1.68;100.00
60319;BME280;46163;52.306;5.634;2024-01-06T09:49:10;101013.72;;;1.77;100.00
60319;BME280;46163;52.306;5.634;2024-01-06T09:51:40;101023.38;;;1.77;100.00
60319;BME280;46163;52.306;5.634;2024-01-06T09:54:09;101018.53;;;1.82;100.00
60319;BME280;46163;52.306;5.634;2024-01-06T09:56:34;101033.06;;;1.86;100.00
60319;BME280;46163;52.306;5.634;2024-01-06T09:59:01;101028.09;;;1.83;100.00
60319;BME280;46163;52.306;5.634;2024-01-06T10:01:26;101013.72;;;1.87;100.00
60319;BME280;46163;52.306;5.634;2024-01-06T10:03:52;101030.13;;;1.89;100.00
60319;BME280;46163;52.306;5.634;2024-01-06T10:06:18;101030.28;;;1.87;100.00
60319;BME280;46163;52.306;5.634;2024-01-06T10:08:50;101030.97;;;2.09;100.00
60319;BME280;46163;52.306;5.634;2024-01-06T10:11:16;101038.28;;;2.05;100.00
60319;BME280;46163;52.306;5.634;2024-01-06T10:13:41;101033.88;;;1.96;100.00
60319;BME280;46163;52.306;5.634;2024-01-06T10:16:07;101033.88;;;1.96;100.00
60319;BME280;46163;52.306;5.634;2024-01-06T10:18:34;101035.09;;;2.11;100.00
60319;BME280;46163;52.306;5.634;2024-01-06T10:21:10;101039.66;;;1.99;100.00
60319;BME280;46163;52.306;5.634;2024-01-06T10:23:36;101057.34;;;2.07;100.00
60319;BME280;46163;52.306;5.634;2024-01-06T10:26:02;101065.66;;;2.03;100.00
60319;BME280;46163;52.306;5.634;2024-01-06T10:28:29;101060.53;;;2.11;100.00
60319;BME280;46163;52.306;5.634;2024-01-06T10:30:57;101057.44;;;2.25;100.00
60319;BME280;46163;52.306;5.634;2024-01-06T10:33:25;101064.94;;;2.10;100.00
60319;BME280;46163;52.306;5.634;2024-01-06T10:35:53;101076.13;;;2.12;100.00
60319;BME280;46163;52.306;5.634;2024-01-06T10:38:22;101068.38;;;2.20;100.00
60319;BME280;46163;52.306;5.634;2024-01-06T10:41:02;101081.81;;;2.17;100.00
60319;BME280;46163;52.306;5.634;2024-01-06T10:43:36;101066.41;;;2.32;100.00
60319;BME280;46163;52.306;5.634;2024-01-06T10:46:03;101084.09;;;2.40;100.00
60319;BME280;46163;52.306;5.634;2024-01-06T10:48:34;101072.91;;;2.38;100.00
60319;BME280;46163;52.306;5.634;2024-01-06T10:51:01;101087.38;;;2.61;100.00
60319;BME280;46163;52.306;5.634;2024-01-06T10:53:36;101085.47;;;2.53;100.00
60319;BME280;46163;52.306;5.634;2024-01-06T10:56:04;101061.22;;;2.13;100.00
60319;BME280;46163;52.306;5.634;2024-01-06T10:58:33;101083.84;;;2.23;100.00
60319;BME280;46163;52.306;5.634;2024-01-06T11:01:02;101092.28;;;2.27;100.00
60319;BME280;46163;52.306;5.634;2024-01-06T11:03:29;101079.72;;;2.11;100.00
60319;BME280;46163;52.306;5.634;2024-01-06T11:05:56;101089.66;;;2.27;100.00
60319;BME280;46163;52.306;5.634;2024-01-06T11:08:22;101092.31;;;2.17;100.00
60319;BME280;46163;52.306;5.634;2024-01-06T11:10:50;101090.50;;;2.28;100.00
60319;BME280;46163;52.306;5.634;2024-01-06T11:13:22;101104.31;;;2.20;100.00
60319;BME280;46163;52.306;5.634;2024-01-06T11:15:53;101107.50;;;2.23;100.00
60319;BME280;46163;52.306;5.634;2024-01-06T11:26:32;101083.47;;;2.18;100.00
60319;BME280;46163;52.306;5.634;2024-01-06T11:29:00;101072.00;;;2.10;100.00
60319;BME280;46163;52.306;5.634;2024-01-06T11:31:31;101101.56;;;2.21;100.00
60319;BME280;46163;52.306;5.634;2024-01-06T11:34:15;101097.00;;;2.14;100.00
60319;BME280;46163;52.306;5.634;2024-01-06T11:36:43;101114.81;;;2.30;100.00
60319;BME280;46163;52.306;5.634;2024-01-06T11:39:37;101108.00;;;2.46;100.00
60319;BME280;46163;52.306;5.634;2024-01-06T11:42:05;101094.22;;;2.25;100.00
60319;BME280;46163;52.306;5.634;2024-01-06T11:44:37;101113.16;;;2.29;100.00
60319;BME280;46163;52.306;5.634;2024-01-06T11:47:04;101110.81;;;2.35;100.00
60319;BME280;46163;52.306;5.634;2024-01-06T11:49:32;101097.66;;;2.25;100.00
60319;BME280;46163;52.306;5.634;2024-01-06T11:51:59;101105.56;;;2.35;100.00
60319;BME280;46163;52.306;5.634;2024-01-06T11:54:25;101104.16;;;2.41;100.00
60319;BME280;46163;52.306;5.634;2024-01-06T11:56:51;101109.84;;;2.36;100.00
60319;BME280;46163;52.306;5.634;2024-01-06T11:59:19;101118.25;;;2.40;100.00
60319;BME280;46163;52.306;5.634;2024-01-06T12:01:45;101108.16;;;2.25;100.00
60319;BME280;46163;52.306;5.634;2024-01-06T12:04:14;101104.84;;;2.33;100.00
60319;BME280;46163;52.306;5.634;2024-01-06T12:06:40;101102.91;;;2.45;100.00
60319;BME280;46163;52.306;5.634;2024-01-06T12:09:12;101111.75;;;2.34;100.00
60319;BME280;46163;52.306;5.634;2024-01-06T12:11:41;101096.59;;;2.18;100.00
60319;BME280;46163;52.306;5.634;2024-01-06T12:14:07;101116.19;;;2.24;100.00
60319;BME280;46163;52.306;5.634;2024-01-06T12:16:33;101103.22;;;2.13;100.00
60319;BME280;46163;52.306;5.634;2024-01-06T12:19:07;101114.13;;;2.37;100.00
60319;BME280;46163;52.306;5.634;2024-01-06T12:21:33;101105.69;;;2.14;100.00
60319;BME280;46163;52.306;5.634;2024-01-06T12:24:16;101115.78;;;2.29;100.00
60319;BME280;46163;52.306;5.634;2024-01-06T12:26:44;101121.03;;;2.38;100.00
60319;BME280;46163;52.306;5.634;2024-01-06T12:29:11;101121.16;;;2.46;100.00
60319;BME280;46163;52.306;5.634;2024-01-06T12:31:38;101120.75;;;2.32;100.00
60319;BME280;46163;52.306;5.634;2024-01-06T12:34:04;101123.81;;;2.27;100.00
60319;BME280;46163;52.306;5.634;2024-01-06T12:36:30;101126.97;;;2.31;100.00
60319;BME280;46163;52.306;5.634;2024-01-06T12:38:59;101129.03;;;2.46;100.00
60319;BME280;46163;52.306;5.634;2024-01-06T12:41:28;101137.47;;;2.31;100.00
60319;BME280;46163;52.306;5.634;2024-01-06T12:43:54;101130.69;;;2.47;100.00
60319;BME280;46163;52.306;5.634;2024-01-06T12:46:19;101137.78;;;2.28;100.00
60319;BME280;46163;52.306;5.634;2024-01-06T12:48:46;101122.97;;;2.17;100.00
60319;BME280;46163;52.306;5.634;2024-01-06T12:51:12;101135.69;;;2.31;100.00
60319;BME280;46163;52.306;5.634;2024-01-06T12:53:37;101132.22;;;2.21;100.00